Ankergracht — PCQL — position and weather

sailwx.info

Track history (hours):
 
Tides and Currents Weather Stations Pressure Air Temp Water Temp Dewpoint Dewpoint Depression Visibility Wind Speed Wind Dir Waves Ship Positions

Ankergracht

Last reported at 2014-Oct-02 09:33 UTC. Time now 2014-Oct-02 14:34 UTC.
Position N 59°31' E 021°34'.

Length 130 m; beam 19 m; draft 9 m.

Type: Ship (hazmat cat A). MMSI: 244852000.

Date/timePositionNaut miles runAvg speedWind from/ knotsBaromVisibWave heightAir tempDewpointWater temp
2014-Oct-02 09:33N 59°31' E 021°34'1413.5
2014-Oct-02 08:30N 59°35' E 021°07'  
2014-Sep-26 16:33N 58°37' E 016°57'1313.0
2014-Sep-26 15:33N 58°39' E 016°32'10 0.5
2014-Sep-25 19:30N 58°36' E 016°13'0 0.0
2014-Sep-25 18:30N 58°36' E 016°13'0 0.0
2014-Sep-25 17:30N 58°36' E 016°13'0 0.0
2014-Sep-25 16:30N 58°36' E 016°13'0 0.0
2014-Sep-25 15:30N 58°36' E 016°13'0 0.0
2014-Sep-25 14:24N 58°36' E 016°13'0 0.0
2014-Sep-25 13:24N 58°36' E 016°13'0 0.0
2014-Sep-25 12:30N 58°36' E 016°13'0 0.0
2014-Sep-25 11:24N 58°36' E 016°13'0 0.0
2014-Sep-25 10:30N 58°36' E 016°13'0 0.0
2014-Sep-25 09:24N 58°36' E 016°13'0 0.0
2014-Sep-25 08:30N 58°36' E 016°13'0 0.0
2014-Sep-25 07:30N 58°36' E 016°13'0 0.0
2014-Sep-25 06:12N 58°36' E 016°13'0 0.0
2014-Sep-25 05:18N 58°36' E 016°13'0 0.0
2014-Sep-25 04:30N 58°36' E 016°13'0 0.0
2014-Sep-25 03:30N 58°36' E 016°13'0 0.0
2014-Sep-25 02:30N 58°36' E 016°13'0 0.0
2014-Sep-25 01:29N 58°36' E 016°13'0 0.0
2014-Sep-25 00:11N 58°36' E 016°13'0 0.0
2014-Sep-24 23:29N 58°36' E 016°13'0 0.0
2014-Sep-24 22:29N 58°36' E 016°13'0 0.0
2014-Sep-24 21:29N 58°36' E 016°13'0 0.0
2014-Sep-24 20:17N 58°36' E 016°13'0 0.0
2014-Sep-24 19:17N 58°36' E 016°13'0 0.4
2014-Sep-24 18:29N 58°36' E 016°13'0 0.0
2014-Sep-24 17:29N 58°36' E 016°13'0 0.0
2014-Sep-24 16:29N 58°36' E 016°13'0 0.0
2014-Sep-24 15:29N 58°36' E 016°13'0 0.0
2014-Sep-24 14:23N 58°36' E 016°13'0 0.0
2014-Sep-24 13:29N 58°36' E 016°13'0 0.0
2014-Sep-24 12:11N 58°36' E 016°13'0 0.0
2014-Sep-24 11:23N 58°36' E 016°13'0 0.0
2014-Sep-24 10:11N 58°36' E 016°13'0 0.0
2014-Sep-24 09:23N 58°36' E 016°13'0 0.0
2014-Sep-24 08:29N 58°36' E 016°13'0 0.0
2014-Sep-24 07:23N 58°36' E 016°13'0 0.0
2014-Sep-24 06:29N 58°36' E 016°13'0 0.0
2014-Sep-24 05:29N 58°36' E 016°13'0 0.0
2014-Sep-24 04:29N 58°36' E 016°13'0 0.0
2014-Sep-24 03:17N 58°36' E 016°13'0 0.0
2014-Sep-24 02:29N 58°36' E 016°13'0 0.0
2014-Sep-24 01:23N 58°36' E 016°13'0 0.0
2014-Sep-24 00:11N 58°36' E 016°13'0 0.0
2014-Sep-23 23:29N 58°36' E 016°13'0 0.0
2014-Sep-23 22:23N 58°36' E 016°13'0 0.0
2014-Sep-23 20:29N 58°36' E 016°13'0 0.0
2014-Sep-23 19:23N 58°36' E 016°13'0 0.0
2014-Sep-23 18:29N 58°36' E 016°13'0 0.1
2014-Sep-23 17:33N 58°36' E 016°13'4 3.6
2014-Sep-23 16:33N 58°38' E 016°19'9 8.6
2014-Sep-23 15:33N 58°38' E 016°35'10 9.8
2014-Sep-23 14:33N 58°36' E 016°54'1010.3
2014-Sep-23 13:33N 58°37' E 017°14'53 3.1
2014-Sep-22 20:30N 57°44' E 017°18'5 5.0
2014-Sep-22 19:33N 57°40' E 017°23'5 4.5
2014-Sep-22 18:33N 57°36' E 017°28'4 4.3
2014-Sep-22 17:33N 57°33' E 017°34'5 4.9
2014-Sep-22 16:33N 57°30' E 017°40'4 3.8
2014-Sep-22 15:33N 57°28' E 017°46'3 2.9
2014-Sep-22 14:33N 57°25' E 017°47'5 4.9
2014-Sep-22 13:32N 57°20' E 017°48'1311.8
2014-Sep-22 12:23N 57°07' E 017°52'  
Track history (hours):
 
Tides and Currents Weather Stations Pressure Air Temp Water Temp Dewpoint Dewpoint Depression Visibility Wind Speed Wind Dir Waves Ship Positions

Ankergracht

Last reported at 2014-Oct-02 09:33 UTC. Time now 2014-Oct-02 14:34 UTC.
Position N 59°31' E 021°34'.

Length 130 m; beam 19 m; draft 9 m.

Type: Ship (hazmat cat A). MMSI: 244852000.

Date/timePositionNaut miles runAvg speedWind from/ knotsBaromVisibWave heightAir tempDewpointWater temp
2014-Oct-02 09:33N 59°31' E 021°34'1413.5
2014-Oct-02 08:30N 59°35' E 021°07'  
2014-Sep-26 16:33N 58°37' E 016°57'1313.0
2014-Sep-26 15:33N 58°39' E 016°32'10 0.5
2014-Sep-25 19:30N 58°36' E 016°13'0 0.0
2014-Sep-25 18:30N 58°36' E 016°13'0 0.0
2014-Sep-25 17:30N 58°36' E 016°13'0 0.0
2014-Sep-25 16:30N 58°36' E 016°13'0 0.0
2014-Sep-25 15:30N 58°36' E 016°13'0 0.0
2014-Sep-25 14:24N 58°36' E 016°13'0 0.0
2014-Sep-25 13:24N 58°36' E 016°13'0 0.0
2014-Sep-25 12:30N 58°36' E 016°13'0 0.0
2014-Sep-25 11:24N 58°36' E 016°13'0 0.0
2014-Sep-25 10:30N 58°36' E 016°13'0 0.0
2014-Sep-25 09:24N 58°36' E 016°13'0 0.0
2014-Sep-25 08:30N 58°36' E 016°13'0 0.0
2014-Sep-25 07:30N 58°36' E 016°13'0 0.0
2014-Sep-25 06:12N 58°36' E 016°13'0 0.0
2014-Sep-25 05:18N 58°36' E 016°13'0 0.0
2014-Sep-25 04:30N 58°36' E 016°13'0 0.0
2014-Sep-25 03:30N 58°36' E 016°13'0 0.0
2014-Sep-25 02:30N 58°36' E 016°13'0 0.0
2014-Sep-25 01:29N 58°36' E 016°13'0 0.0
2014-Sep-25 00:11N 58°36' E 016°13'0 0.0
2014-Sep-24 23:29N 58°36' E 016°13'0 0.0
2014-Sep-24 22:29N 58°36' E 016°13'0 0.0
2014-Sep-24 21:29N 58°36' E 016°13'0 0.0
2014-Sep-24 20:17N 58°36' E 016°13'0 0.0
2014-Sep-24 19:17N 58°36' E 016°13'0 0.4
2014-Sep-24 18:29N 58°36' E 016°13'0 0.0
2014-Sep-24 17:29N 58°36' E 016°13'0 0.0
2014-Sep-24 16:29N 58°36' E 016°13'0 0.0
2014-Sep-24 15:29N 58°36' E 016°13'0 0.0
2014-Sep-24 14:23N 58°36' E 016°13'0 0.0
2014-Sep-24 13:29N 58°36' E 016°13'0 0.0
2014-Sep-24 12:11N 58°36' E 016°13'0 0.0
2014-Sep-24 11:23N 58°36' E 016°13'0 0.0
2014-Sep-24 10:11N 58°36' E 016°13'0 0.0
2014-Sep-24 09:23N 58°36' E 016°13'0 0.0
2014-Sep-24 08:29N 58°36' E 016°13'0 0.0
2014-Sep-24 07:23N 58°36' E 016°13'0 0.0
2014-Sep-24 06:29N 58°36' E 016°13'0 0.0
2014-Sep-24 05:29N 58°36' E 016°13'0 0.0
2014-Sep-24 04:29N 58°36' E 016°13'0 0.0
2014-Sep-24 03:17N 58°36' E 016°13'0 0.0
2014-Sep-24 02:29N 58°36' E 016°13'0 0.0
2014-Sep-24 01:23N 58°36' E 016°13'0 0.0
2014-Sep-24 00:11N 58°36' E 016°13'0 0.0
2014-Sep-23 23:29N 58°36' E 016°13'0 0.0
2014-Sep-23 22:23N 58°36' E 016°13'0 0.0
2014-Sep-23 20:29N 58°36' E 016°13'0 0.0
2014-Sep-23 19:23N 58°36' E 016°13'0 0.0
2014-Sep-23 18:29N 58°36' E 016°13'0 0.1
2014-Sep-23 17:33N 58°36' E 016°13'4 3.6
2014-Sep-23 16:33N 58°38' E 016°19'9 8.6
2014-Sep-23 15:33N 58°38' E 016°35'10 9.8
2014-Sep-23 14:33N 58°36' E 016°54'1010.3
2014-Sep-23 13:33N 58°37' E 017°14'53 3.1
2014-Sep-22 20:30N 57°44' E 017°18'5 5.0
2014-Sep-22 19:33N 57°40' E 017°23'5 4.5
2014-Sep-22 18:33N 57°36' E 017°28'4 4.3
2014-Sep-22 17:33N 57°33' E 017°34'5 4.9
2014-Sep-22 16:33N 57°30' E 017°40'4 3.8
2014-Sep-22 15:33N 57°28' E 017°46'3 2.9
2014-Sep-22 14:33N 57°25' E 017°47'5 4.9
2014-Sep-22 13:32N 57°20' E 017°48'1311.8
2014-Sep-22 12:23N 57°07' E 017°52'  

Dump ship's entire track history